Menu       Home   X °F

Select another period ( hide this area )

Units Period Custom range Directly to
Metric English Both
Daily Weekly Monthly Yearly
use both date-selectors for a custom range
previous Day
With this date
Daily Summary for Tuesday 25 June 2024
Time Temp. ( °F ) Dew pt. ( °F ) Wind ( mph ) From Gust ( mph ) Pressure ( in ) Humid.( % ) Rainrate ( in )
High66.4 62.6 1.0 SSE ( 5/5 ) 1.0 29.99 99 -
Average59.5 58.6 0.0 Calm #104/109 0.1 30.00 97 -
Low56.7 56.3 -   0.0 29.94 87 -
Daily Tabular details for Tuesday 25 June 2024
Time Temp. ( °F ) Dew pt. ( °F ) Wind ( mph ) From Gust ( mph ) Pressure ( in ) Humid.( % ) Rainrate ( in )
00:04 63.7 61.3   Calm   29.94 92 -
00:09 63.7 61.3   Calm   29.94 92 -
00:14 63.1 61.0   Calm   29.94 93 -
00:19 63.0 60.8   Calm   29.95 93 -
00:24 62.6 60.4   Calm   29.94 94 -
00:29 62.6 60.6   Calm   29.94 94 -
00:34 62.6 61.0   Calm   29.94 95 -
00:39 62.4 61.0   Calm   29.94 95 -
00:44 62.2 60.8   Calm   29.94 95 -
00:49 62.2 60.8   Calm   29.95 95 -
00:54 61.7 60.3   Calm   29.94 95 -
00:59 61.7 60.3   Calm   29.94 95 -
01:04 61.5 60.1   Calm   29.95 95 -
01:09 61.5 60.4   Calm   29.94 96 -
01:14 61.3 60.1   Calm   29.94 96 -
01:19 61.5 60.1   Calm   29.94 95 -
01:24 61.3 59.9   Calm   29.95 95 -
01:29 61.0 59.9   Calm   29.94 96 -
01:34 61.0 59.9   Calm   29.95 96 -
01:39 61.0 59.9   Calm   29.95 96 -
01:44 60.8 59.7   Calm   29.95 96 -
01:49 61.0 60.3 1.0 SSE 1.0 29.95 97 -
01:54 60.6 59.9 1.0 SSE 1.0 29.95 97 -
01:59 60.4 59.7   Calm   29.95 97 -
02:04 60.4 59.7   Calm 1.0 29.94 97 -
02:09 60.4 59.7   Calm 1.0 29.94 97 -
02:14 60.3 59.5   Calm   29.94 97 -
02:19 60.3 59.5   Calm   29.95 97 -
02:24 60.1 59.4   Calm   29.95 97 -
02:29 60.1 59.4   Calm   29.95 98 -
02:34 59.9 59.4   Calm   29.94 98 -
02:39 59.7 59.2   Calm   29.94 98 -
02:44 59.5 59.0   Calm   29.94 98 -
02:49 59.5 59.0   Calm   29.94 98 -
02:54 59.5 59.0   Calm   29.94 98 -
02:59 59.4 58.8   Calm   29.94 98 -
03:04 59.4 58.8   Calm   29.94 98 -
03:09 59.2 58.6   Calm   29.94 98 -
03:14 59.0 58.5   Calm   29.94 98 -
03:19 59.0 58.5   Calm   29.94 98 -
03:24 59.0 58.5   Calm   29.94 98 -
03:29 58.8 58.3   Calm   29.94 98 -
03:34 58.8 58.3   Calm   29.94 98 -
03:39 58.8 58.3   Calm   29.94 98 -
03:44 58.6 58.1   Calm   29.94 98 -
03:49 58.6 58.1   Calm   29.94 98 -
03:54 58.5 57.9   Calm   29.95 98 -
03:59 58.5 58.1   Calm   29.94 99 -
04:04 58.5 58.1   Calm   29.94 99 -
04:09 58.5 58.1   Calm   29.95 99 -
04:14 58.5 58.1   Calm   29.95 99 -
04:19 58.5 58.1   Calm   29.96 99 -
04:24 58.1 57.7   Calm   29.96 99 -
04:29 57.9 57.6   Calm   29.96 99 -
04:34 57.9 57.6   Calm   29.95 99 -
04:39 57.9 57.6   Calm   29.96 99 -
04:44 57.7 57.4   Calm   29.96 99 -
04:49 57.7 57.4   Calm   29.96 99 -
04:54 57.7 57.4   Calm   29.96 99 -
04:59 57.6 57.2   Calm   29.96 99 -
05:04 57.6 57.2   Calm   29.96 99 -
05:09 57.6 57.2   Calm   29.96 99 -
05:14 57.4 57.0   Calm   29.96 99 -
05:19 57.4 57.0   Calm   29.96 99 -
05:24 57.6 57.2   Calm   29.96 99 -
05:29 57.6 57.2   Calm   29.96 99 -
05:34 57.6 57.2   Calm   29.96 99 -
05:39 57.6 57.2   Calm   29.96 99 -
05:44 57.6 57.2   Calm   29.97 99 -
05:49 57.6 57.2   Calm   29.96 99 -
05:54 57.6 57.2   Calm   29.96 99 -
05:59 57.4 57.0   Calm   29.96 99 -
06:04 57.2 56.8   Calm   29.95 99 -
06:09 57.0 56.7   Calm   29.96 99 -
06:14 57.0 56.7   Calm   29.96 99 -
06:19 56.8 56.5   Calm   29.96 99 -
06:24 56.8 56.5   Calm   29.96 99 -
06:29 56.8 56.5   Calm   29.96 99 -
06:34 56.8 56.5   Calm   29.96 99 -
06:39 56.8 56.5   Calm   29.96 99 -
06:44 56.7 56.3   Calm   29.97 99 -
06:49 56.7 56.3   Calm   29.97 99 -
06:54 56.7 56.3   Calm   29.97 99 -
06:59 56.7 56.3   Calm   29.97 99 -
07:04 56.7 56.3   Calm   29.97 99 -
07:09 56.7 56.3   Calm   29.97 99 -
07:14 56.7 56.3   Calm   29.97 99 -
07:19 56.7 56.3   Calm   29.97 99 -
07:24 57.0 56.7   Calm   29.98 99 -
07:29 57.4 57.0   Calm   29.97 99 -
07:34 57.7 57.4   Calm   29.97 99 -
07:39 57.9 57.6   Calm   29.97 99 -
07:44 58.3 57.9   Calm   29.98 99 -
07:49 58.6 58.3   Calm   29.98 99 -
07:54 59.0 58.6 1.0 SSE 1.0 29.98 99 -
07:59 59.5 59.2 1.0 SSE 1.0 29.98 99 -
08:04 59.9 59.4   Calm   29.98 98 -
08:09 60.4 59.5   Calm   29.99 97 -
08:14 61.0 59.5   Calm   29.99 96 -
08:19 61.3 59.4   Calm   29.99 94 -
08:24 61.9 59.9   Calm   29.99 94 -
08:29 62.2 60.1   Calm   29.99 94 -
08:34 62.8 60.6   Calm   29.99 93 -
08:39 63.3 60.8   Calm 1.0 29.99 93 -
08:44 64.0 61.0   Calm   29.99 91 -
08:49 64.6 61.0 1.0 SSE 1.0 29.99 89 -
08:54 65.3 61.3   Calm 1.0 29.99 87 -
08:59 65.8 61.9   Calm   29.99 87 -
09:04 66.4 62.6   Calm   29.99 88 -

Download your copy of this data-set  from WeatherUnderground

Our weather-data as stored at Weather Underground

Original Weather Page

My Ham Radio Page